Terminal Aerodrome Forecast
Issued by NWS Austin/San Antonio, TX

Home | Current Version | Previous Version | Text Only | Print | Product List | Glossary On
Versions: 1 2 3 4 5 6 7 8 9 10 11 12 13 14 15 16 17 18 19
000
FTUS44 KEWX 062340
TAFAUS
TAF
KAUS 062340Z 0700/0806 17015G25KT P6SM SCT060 SCT250
     FM070200 15014KT P6SM SCT250
     FM070500 16011KT P6SM BKN025
     FM070700 16010KT P6SM BKN012
     FM071400 18015KT P6SM SCT017 BKN025
     FM071700 18015G25KT P6SM SCT040
     FM080000 16014KT P6SM SCT070=

USA.gov is the U.S. government's official web portal to all federal, state and local government web resources and services.